Time;durP1;ratioP1;P1;durP2;ratioP2;P2;SDS_P1;SDS_P2;PMS_P1;PMS_P2;Temp;Humidity;BMP_temperature;BMP_pressure;BME280_temperature;BME280_humidity;BME280_pressure;Samples;Min_cycle;Max_cycle;Signal;HPM_P1;HPM_P2
2022/09/01 00:02:10;;;;;;;;;;;17.20;65.80;;;;;;5127339;27;19972;-64
2022/09/01 00:04:37;;;;;;;;;;;17.20;65.80;;;;;;5129233;27;20081;-64
2022/09/01 00:07:06;;;;;;;;;;;17.20;65.80;;;;;;5131720;27;19927;-64
2022/09/01 00:09:33;;;;;;;;;;;17.10;66.00;;;;;;5119841;27;19947;-63
2022/09/01 00:12:00;;;;;;;;;;;17.10;66.10;;;;;;5126224;27;19939;-65
2022/09/01 00:14:29;;;;;;;;;;;17.10;66.10;;;;;;5129886;27;19932;-64
2022/09/01 00:16:56;;;;;;;;;;;17.10;66.10;;;;;;5126545;27;20550;-65
2022/09/01 00:19:23;;;;;;;;;;;17.10;66.20;;;;;;5126112;27;20011;-65
2022/09/01 00:21:50;;;;;;;;;;;17.00;66.20;;;;;;5123454;27;19935;-66
2022/09/01 00:24:18;;;;;;;;;;;17.00;66.30;;;;;;5122205;27;19924;-65
2022/09/01 00:26:45;;;;;;;;;;;17.00;66.40;;;;;;5125972;27;19924;-65
2022/09/01 00:29:13;;;;;;;;;;;17.00;66.30;;;;;;5125198;27;20396;-66
2022/09/01 00:31:40;;;;;;;;;;;16.90;66.30;;;;;;5128117;27;19966;-66
2022/09/01 00:34:07;;;;;;;;;;;17.00;66.30;;;;;;5121295;27;20415;-64
2022/09/01 00:36:34;;;;;;;;;;;16.90;66.40;;;;;;5134225;27;19919;-64
2022/09/01 00:39:01;;;;;;;;;;;16.80;66.60;;;;;;5133728;27;20010;-64
2022/09/01 00:41:30;;;;;;;;;;;16.80;66.70;;;;;;5129740;27;19929;-64
2022/09/01 00:43:58;;;;;;;;;;;16.80;66.70;;;;;;5124018;27;19924;-65
2022/09/01 00:46:26;;;;;;;;;;;16.70;66.80;;;;;;5129524;27;20002;-63
2022/09/01 00:48:55;;;;;;;;;;;16.70;66.90;;;;;;5118128;27;19919;-64
2022/09/01 00:51:23;;;;;;;;;;;16.70;66.90;;;;;;5120647;27;19950;-65
2022/09/01 00:53:49;;;;;;;;;;;16.70;67.00;;;;;;5127497;27;19919;-66
2022/09/01 00:56:16;;;;;;;;;;;16.60;67.00;;;;;;5130754;27;19927;-64
2022/09/01 00:58:45;;;;;;;;;;;16.60;67.10;;;;;;5133477;27;19919;-64
2022/09/01 01:01:12;;;;;;;;;;;16.60;67.10;;;;;;5131955;27;19920;-64
2022/09/01 01:03:43;;;;;;;;;;;16.60;67.20;;;;;;5122308;27;19926;-65
2022/09/01 01:06:12;;;;;;;;;;;16.60;67.20;;;;;;5135356;27;19924;-64
2022/09/01 01:08:43;;;;;;;;;;;16.60;67.20;;;;;;5132212;27;19942;-64
2022/09/01 01:11:16;;;;;;;;;;;16.50;67.50;;;;;;5133227;27;19919;-64
2022/09/01 01:13:50;;;;;;;;;;;16.50;67.50;;;;;;5128249;27;19927;-64
2022/09/01 01:16:17;;;;;;;;;;;16.50;67.50;;;;;;5128941;27;19926;-64
2022/09/01 01:18:44;;;;;;;;;;;16.50;67.60;;;;;;5128328;27;19928;-65
2022/09/01 01:24:02;;;;;;;;;;;16.40;67.60;;;;;;5124224;27;19934;-64
2022/09/01 01:26:30;;;;;;;;;;;16.40;67.60;;;;;;5148488;27;19935;-63
2022/09/01 01:28:57;;;;;;;;;;;16.50;67.70;;;;;;5121422;27;20026;-64
2022/09/01 01:31:24;;;;;;;;;;;16.40;67.70;;;;;;5128871;27;19946;-64
2022/09/01 01:33:52;;;;;;;;;;;16.40;67.80;;;;;;5120303;27;19920;-64
2022/09/01 01:36:31;;;;;;;;;;;16.40;67.90;;;;;;5126111;27;19924;-64
2022/09/01 01:39:00;;;;;;;;;;;16.40;67.90;;;;;;5124439;27;20002;-64
2022/09/01 01:41:31;;;;;;;;;;;16.40;67.90;;;;;;5124614;27;19919;-66
2022/09/01 01:43:59;;;;;;;;;;;16.40;68.00;;;;;;5127879;27;20006;-64
2022/09/01 01:46:27;;;;;;;;;;;16.50;68.00;;;;;;5121315;27;19919;-63
2022/09/01 01:48:54;;;;;;;;;;;16.40;68.10;;;;;;5128746;27;19960;-63
2022/09/01 01:51:23;;;;;;;;;;;16.40;68.10;;;;;;5126835;27;19920;-63
2022/09/01 01:53:51;;;;;;;;;;;16.40;68.10;;;;;;5125595;27;20300;-64
2022/09/01 01:56:18;;;;;;;;;;;16.30;68.20;;;;;;5132322;27;19923;-64
2022/09/01 01:58:47;;;;;;;;;;;16.30;68.30;;;;;;5132392;27;19930;-64
2022/09/01 02:01:17;;;;;;;;;;;16.30;68.30;;;;;;5121504;27;20403;-64
2022/09/01 02:03:44;;;;;;;;;;;16.30;68.30;;;;;;5125460;27;19959;-64
2022/09/01 02:06:11;;;;;;;;;;;16.30;68.30;;;;;;5130638;27;20026;-64
2022/09/01 02:08:38;;;;;;;;;;;16.30;68.30;;;;;;5130934;27;20339;-63
2022/09/01 02:11:05;;;;;;;;;;;16.30;68.40;;;;;;5132998;27;19923;-64
2022/09/01 02:13:34;;;;;;;;;;;16.30;68.30;;;;;;5118466;27;20475;-63
2022/09/01 02:16:04;;;;;;;;;;;16.30;68.50;;;;;;5125787;27;19927;-64
2022/09/01 02:18:34;;;;;;;;;;;16.30;68.40;;;;;;5126546;27;19927;-64
2022/09/01 02:21:01;;;;;;;;;;;16.20;68.50;;;;;;5121296;27;20066;-63
2022/09/01 02:23:28;;;;;;;;;;;16.30;68.40;;;;;;5122527;27;19970;-64
2022/09/01 02:25:59;;;;;;;;;;;16.30;68.50;;;;;;5127025;27;20045;-62
2022/09/01 02:28:27;;;;;;;;;;;16.20;68.70;;;;;;5133882;27;20345;-64
2022/09/01 02:30:54;;;;;;;;;;;16.20;68.80;;;;;;5127175;27;19927;-63
2022/09/01 02:33:23;;;;;;;;;;;16.20;68.70;;;;;;5122101;27;19920;-65
2022/09/01 02:35:51;;;;;;;;;;;16.20;68.70;;;;;;5129872;27;19975;-63
2022/09/01 02:38:19;;;;;;;;;;;16.20;68.80;;;;;;5120644;27;19998;-64
2022/09/01 02:40:47;;;;;;;;;;;16.20;68.80;;;;;;5127316;27;19964;-65
2022/09/01 02:43:19;;;;;;;;;;;16.20;68.80;;;;;;5129311;27;20285;-65
2022/09/01 02:45:46;;;;;;;;;;;16.20;68.90;;;;;;5125825;27;19930;-63
2022/09/01 02:48:13;;;;;;;;;;;16.10;69.00;;;;;;5133085;27;19937;-65
2022/09/01 02:50:41;;;;;;;;;;;16.10;69.10;;;;;;5127816;27;19969;-64
2022/09/01 02:53:10;;;;;;;;;;;16.10;69.10;;;;;;5112766;27;19927;-64
2022/09/01 02:55:37;;;;;;;;;;;16.10;69.10;;;;;;5124866;27;19965;-64
2022/09/01 02:58:06;;;;;;;;;;;16.10;69.20;;;;;;5127199;27;20197;-62
2022/09/01 03:00:36;;;;;;;;;;;16.10;69.20;;;;;;5116481;27;19949;-63
2022/09/01 03:03:03;;;;;;;;;;;16.00;69.30;;;;;;5125315;27;19920;-64
2022/09/01 03:05:31;;;;;;;;;;;16.00;69.30;;;;;;5128629;27;19923;-65
2022/09/01 03:08:00;;;;;;;;;;;16.00;69.20;;;;;;5127301;27;19919;-63
2022/09/01 03:10:31;;;;;;;;;;;16.10;69.10;;;;;;5128213;27;19964;-64
2022/09/01 03:12:59;;;;;;;;;;;16.10;69.10;;;;;;5116046;27;19919;-63
2022/09/01 03:15:26;;;;;;;;;;;16.00;69.30;;;;;;5131213;27;20007;-65
2022/09/01 03:17:53;;;;;;;;;;;16.00;69.50;;;;;;5123123;28;19942;-63
2022/09/01 03:20:20;;;;;;;;;;;15.90;69.70;;;;;;5131134;27;19926;-64
2022/09/01 03:22:47;;;;;;;;;;;15.90;69.90;;;;;;5132415;27;19919;-64
2022/09/01 03:25:16;;;;;;;;;;;15.90;69.80;;;;;;5126606;27;19920;-63
2022/09/01 03:27:42;;;;;;;;;;;15.80;69.90;;;;;;5129898;27;20236;-64
2022/09/01 03:30:10;;;;;;;;;;;15.90;69.90;;;;;;5132975;27;19919;-63
2022/09/01 03:32:37;;;;;;;;;;;15.80;69.80;;;;;;5127102;27;19920;-63
2022/09/01 03:35:05;;;;;;;;;;;15.90;69.80;;;;;;5131454;27;19920;-64
2022/09/01 03:37:33;;;;;;;;;;;15.80;69.90;;;;;;5128917;27;20015;-63
2022/09/01 03:40:03;;;;;;;;;;;15.80;69.90;;;;;;5125072;27;19920;-64
2022/09/01 03:42:32;;;;;;;;;;;15.80;69.90;;;;;;5130562;27;19964;-63
2022/09/01 03:44:59;;;;;;;;;;;15.80;70.00;;;;;;5135834;27;19980;-64
2022/09/01 03:47:26;;;;;;;;;;;15.70;70.00;;;;;;5127664;27;20358;-63
2022/09/01 03:49:53;;;;;;;;;;;15.70;70.20;;;;;;5129781;27;20046;-63
2022/09/01 03:52:22;;;;;;;;;;;15.70;70.10;;;;;;5134139;27;19927;-64
2022/09/01 03:54:52;;;;;;;;;;;15.80;70.00;;;;;;5132430;27;19934;-62
2022/09/01 03:57:22;;;;;;;;;;;15.80;70.00;;;;;;5131514;27;19920;-63
2022/09/01 03:59:50;;;;;;;;;;;15.80;70.10;;;;;;5131792;27;20460;-65
2022/09/01 04:02:17;;;;;;;;;;;15.70;70.20;;;;;;5125500;27;20018;-63
2022/09/01 04:04:44;;;;;;;;;;;15.70;70.30;;;;;;5132941;27;20388;-62
2022/09/01 04:07:11;;;;;;;;;;;15.70;70.20;;;;;;5127065;27;19919;-62
2022/09/01 04:09:38;;;;;;;;;;;15.70;70.30;;;;;;5130876;27;19919;-64
2022/09/01 04:12:07;;;;;;;;;;;15.60;70.40;;;;;;5132587;27;20009;-64
2022/09/01 04:14:35;;;;;;;;;;;15.60;70.50;;;;;;5132493;27;19926;-63
2022/09/01 04:19:48;;;;;;;;;;;15.60;70.60;;;;;;5120452;27;19930;-64
2022/09/01 04:22:16;;;;;;;;;;;15.60;70.50;;;;;;5133747;27;19976;-62
2022/09/01 04:24:44;;;;;;;;;;;15.60;70.60;;;;;;5125909;27;19926;-62
2022/09/01 04:27:11;;;;;;;;;;;15.60;70.60;;;;;;5130396;27;19955;-62
2022/09/01 04:29:38;;;;;;;;;;;15.60;70.80;;;;;;5130371;27;20336;-62
2022/09/01 04:32:11;;;;;;;;;;;15.50;70.90;;;;;;5132677;27;19919;-63
2022/09/01 04:34:40;;;;;;;;;;;15.50;71.10;;;;;;5130836;27;20269;-64
2022/09/01 04:37:11;;;;;;;;;;;15.50;71.10;;;;;;5129645;27;19923;-62
2022/09/01 04:39:39;;;;;;;;;;;15.50;71.00;;;;;;5127359;27;19926;-65
2022/09/01 04:42:08;;;;;;;;;;;15.60;71.00;;;;;;5128202;27;19919;-64
2022/09/01 04:44:36;;;;;;;;;;;15.50;70.90;;;;;;5126560;27;20399;-64
2022/09/01 04:47:09;;;;;;;;;;;15.60;71.00;;;;;;5126647;27;19980;-64
2022/09/01 04:49:38;;;;;;;;;;;15.40;71.30;;;;;;5132031;27;19920;-64
2022/09/01 04:52:05;;;;;;;;;;;15.40;71.30;;;;;;5134765;27;20369;-64
2022/09/01 04:54:34;;;;;;;;;;;15.50;71.20;;;;;;5126668;27;19925;-63
2022/09/01 04:57:02;;;;;;;;;;;15.50;71.20;;;;;;5128169;27;20399;-64
2022/09/01 04:59:30;;;;;;;;;;;15.50;71.20;;;;;;5121034;27;19995;-64
2022/09/01 05:02:00;;;;;;;;;;;15.50;71.30;;;;;;5123431;27;19952;-64
2022/09/01 05:04:28;;;;;;;;;;;15.50;71.40;;;;;;5129929;27;19925;-62
2022/09/01 05:06:58;;;;;;;;;;;15.50;71.30;;;;;;5135770;27;20017;-63
2022/09/01 05:09:27;;;;;;;;;;;15.60;71.20;;;;;;5130319;27;20344;-63
2022/09/01 05:12:12;;;;;;;;;;;15.60;71.20;;;;;;5126866;27;19927;-70
2022/09/01 05:14:42;;;;;;;;;;;15.60;71.20;;;;;;5132210;27;19942;-62
2022/09/01 05:17:10;;;;;;;;;;;15.60;71.30;;;;;;5119942;27;19929;-63
2022/09/01 05:19:37;;;;;;;;;;;15.60;71.00;;;;;;5120935;27;19923;-62
2022/09/01 05:22:09;;;;;;;;;;;15.60;71.20;;;;;;5128701;27;19924;-64
2022/09/01 05:24:39;;;;;;;;;;;15.60;71.10;;;;;;5131419;27;19923;-64
2022/09/01 05:27:06;;;;;;;;;;;15.60;71.10;;;;;;5127825;27;19928;-63
2022/09/01 05:29:37;;;;;;;;;;;15.60;71.20;;;;;;5143415;27;19919;-62
2022/09/01 05:32:10;;;;;;;;;;;15.60;71.20;;;;;;5122313;27;20304;-64
2022/09/01 05:34:38;;;;;;;;;;;15.60;71.30;;;;;;5130676;27;19919;-64
2022/09/01 05:37:07;;;;;;;;;;;15.60;71.40;;;;;;5126347;27;20038;-63
2022/09/01 05:39:36;;;;;;;;;;;15.60;71.30;;;;;;5125825;27;20433;-63
2022/09/01 05:42:06;;;;;;;;;;;15.60;71.30;;;;;;5130265;27;19923;-64
2022/09/01 05:44:34;;;;;;;;;;;15.60;71.30;;;;;;5131215;27;20326;-64
2022/09/01 05:47:02;;;;;;;;;;;15.70;70.90;;;;;;5122208;27;19927;-63
2022/09/01 05:49:31;;;;;;;;;;;15.80;70.70;;;;;;5123232;27;19919;-65
2022/09/01 05:51:59;;;;;;;;;;;15.80;70.80;;;;;;5126736;27;19927;-63
2022/09/01 05:54:31;;;;;;;;;;;15.80;70.90;;;;;;5128422;27;19954;-64
2022/09/01 05:56:58;;;;;;;;;;;15.80;70.80;;;;;;5129905;27;20296;-63
2022/09/01 05:59:30;;;;;;;;;;;15.90;70.70;;;;;;5123368;27;20395;-63
2022/09/01 06:02:20;;;;;;;;;;;15.90;70.60;;;;;;5115269;27;19919;-65
2022/09/01 06:04:47;;;;;;;;;;;16.00;70.60;;;;;;5125209;27;19919;-64
2022/09/01 06:07:22;;;;;;;;;;;16.10;70.50;;;;;;5132741;27;19919;-64
2022/09/01 06:09:53;;;;;;;;;;;16.10;70.40;;;;;;5130164;27;20011;-64
2022/09/01 06:12:23;;;;;;;;;;;16.20;70.00;;;;;;5123341;27;20389;-63
2022/09/01 06:14:51;;;;;;;;;;;16.40;69.70;;;;;;5117885;27;19925;-64
2022/09/01 06:17:23;;;;;;;;;;;16.50;69.20;;;;;;5117860;27;19923;-63
2022/09/01 06:19:52;;;;;;;;;;;16.50;69.00;;;;;;5126112;27;19968;-63
2022/09/01 06:22:19;;;;;;;;;;;16.60;68.10;;;;;;5126647;27;19988;-64
2022/09/01 06:24:46;;;;;;;;;;;16.60;68.70;;;;;;5126356;27;20098;-65
2022/09/01 06:27:16;;;;;;;;;;;16.80;68.40;;;;;;5123624;27;20315;-64
2022/09/01 06:29:44;;;;;;;;;;;16.80;68.20;;;;;;5127039;27;19919;-64
2022/09/01 06:32:11;;;;;;;;;;;16.90;68.00;;;;;;5125317;27;20006;-65
2022/09/01 06:34:41;;;;;;;;;;;16.90;68.20;;;;;;5124228;27;19939;-64
2022/09/01 06:37:08;;;;;;;;;;;17.00;68.20;;;;;;5121295;27;19920;-66
2022/09/01 06:39:36;;;;;;;;;;;17.10;67.90;;;;;;5129683;27;19959;-66
2022/09/01 06:42:03;;;;;;;;;;;17.10;67.90;;;;;;5126219;27;19919;-65
2022/09/01 06:44:42;;;;;;;;;;;17.10;67.40;;;;;;5130023;27;19923;-65
2022/09/01 06:47:09;;;;;;;;;;;17.10;67.90;;;;;;5126466;27;19923;-65
2022/09/01 06:49:38;;;;;;;;;;;17.20;67.70;;;;;;5121953;27;19942;-65
2022/09/01 06:52:10;;;;;;;;;;;17.30;67.60;;;;;;5125363;27;19969;-65
2022/09/01 06:54:38;;;;;;;;;;;17.30;67.50;;;;;;5149266;27;19920;-64
2022/09/01 06:57:05;;;;;;;;;;;17.30;67.40;;;;;;5124735;27;19923;-65
2022/09/01 06:59:32;;;;;;;;;;;17.40;67.10;;;;;;5128070;27;19931;-64
2022/09/01 07:02:02;;;;;;;;;;;17.40;67.10;;;;;;5132461;27;19965;-64
2022/09/01 07:04:52;;;;;;;;;;;17.60;66.90;;;;;;5098754;27;20449;-64
2022/09/01 07:07:21;;;;;;;;;;;17.60;66.70;;;;;;5126095;27;20341;-64
2022/09/01 07:10:19;;;;;;;;;;;17.60;66.90;;;;;;5126916;27;19923;-65
2022/09/01 07:12:51;;;;;;;;;;;17.70;66.50;;;;;;5119320;27;20376;-65
2022/09/01 07:15:18;;;;;;;;;;;17.70;66.50;;;;;;5122688;27;19927;-63
2022/09/01 07:17:48;;;;;;;;;;;17.80;66.50;;;;;;5142123;27;19973;-65
2022/09/01 07:20:16;;;;;;;;;;;17.90;66.10;;;;;;5126074;27;19926;-65
2022/09/01 07:22:44;;;;;;;;;;;17.90;65.90;;;;;;5122251;27;20665;-64
2022/09/01 07:25:11;;;;;;;;;;;17.90;66.00;;;;;;5127267;27;19919;-65
2022/09/01 07:27:49;;;;;;;;;;;18.10;66.00;;;;;;5128706;27;19968;-64
2022/09/01 07:30:17;;;;;;;;;;;18.10;65.60;;;;;;5128022;27;20015;-64
2022/09/01 07:32:45;;;;;;;;;;;18.20;65.80;;;;;;5127917;27;19952;-64
2022/09/01 07:35:15;;;;;;;;;;;18.20;65.50;;;;;;5125450;27;20384;-64
2022/09/01 07:37:43;;;;;;;;;;;18.30;65.40;;;;;;5120947;27;20048;-63
2022/09/01 07:40:12;;;;;;;;;;;18.40;65.30;;;;;;5124592;27;19968;-64
2022/09/01 07:42:59;;;;;;;;;;;18.50;65.00;;;;;;5128642;27;20007;-64
2022/09/01 07:45:47;;;;;;;;;;;18.70;64.10;;;;;;5126453;27;19933;-66
2022/09/01 07:48:17;;;;;;;;;;;18.70;63.90;;;;;;5126211;27;19920;-65
2022/09/01 07:50:51;;;;;;;;;;;18.70;63.70;;;;;;5132022;27;20006;-65
2022/09/01 07:53:21;;;;;;;;;;;18.90;63.20;;;;;;5142509;27;19930;-63
2022/09/01 07:55:49;;;;;;;;;;;18.90;63.20;;;;;;5112000;27;19927;-64
2022/09/01 07:58:17;;;;;;;;;;;19.00;63.30;;;;;;5126966;27;19926;-65
2022/09/01 08:00:46;;;;;;;;;;;19.00;62.80;;;;;;5128670;27;20031;-71
2022/09/01 08:03:15;;;;;;;;;;;19.00;62.90;;;;;;5128052;27;20014;-72
2022/09/01 08:05:43;;;;;;;;;;;19.10;62.80;;;;;;5129690;27;20261;-72
2022/09/01 08:08:11;;;;;;;;;;;19.10;62.50;;;;;;5130110;27;20300;-71
2022/09/01 08:10:39;;;;;;;;;;;19.20;62.50;;;;;;5127296;27;19927;-71
2022/09/01 08:13:06;;;;;;;;;;;19.30;62.20;;;;;;5118682;27;19946;-71
2022/09/01 08:15:33;;;;;;;;;;;19.30;62.20;;;;;;5124514;27;20040;-72
2022/09/01 08:18:00;;;;;;;;;;;19.30;62.20;;;;;;5128369;27;19933;-71
2022/09/01 08:20:33;;;;;;;;;;;19.40;62.00;;;;;;5126616;27;20498;-72
2022/09/01 08:23:25;;;;;;;;;;;19.50;61.90;;;;;;5134207;27;20318;-71
2022/09/01 08:25:52;;;;;;;;;;;19.60;61.40;;;;;;5124413;27;20061;-72
2022/09/01 08:28:19;;;;;;;;;;;19.70;61.20;;;;;;5128228;27;20017;-73
2022/09/01 08:30:47;;;;;;;;;;;19.70;60.90;;;;;;5127509;27;19964;-72
2022/09/01 08:33:15;;;;;;;;;;;19.80;61.10;;;;;;5126371;27;19929;-71
2022/09/01 08:35:46;;;;;;;;;;;19.80;61.10;;;;;;5132366;27;20004;-71
2022/09/01 08:38:13;;;;;;;;;;;19.90;61.10;;;;;;5130868;27;20376;-72
2022/09/01 08:40:43;;;;;;;;;;;20.00;60.40;;;;;;5128595;27;19955;-72
2022/09/01 08:43:14;;;;;;;;;;;20.00;60.40;;;;;;5134014;27;19927;-71
2022/09/01 08:45:45;;;;;;;;;;;20.10;60.30;;;;;;5128485;27;19966;-73
2022/09/01 08:48:14;;;;;;;;;;;20.10;60.40;;;;;;5121899;27;19925;-73
2022/09/01 08:50:41;;;;;;;;;;;20.20;60.20;;;;;;5131975;27;19924;-72
2022/09/01 08:53:21;;;;;;;;;;;20.30;59.90;;;;;;5127792;27;19919;-72
2022/09/01 08:55:53;;;;;;;;;;;20.40;59.70;;;;;;5129206;27;20277;-73
2022/09/01 08:58:20;;;;;;;;;;;20.40;59.90;;;;;;5132457;27;19923;-72
2022/09/01 09:01:08;;;;;;;;;;;20.50;59.50;;;;;;5124968;27;19933;-73
2022/09/01 09:03:40;;;;;;;;;;;20.60;59.40;;;;;;5125419;27;19919;-73
2022/09/01 09:06:12;;;;;;;;;;;20.60;59.10;;;;;;5132101;27;19923;-71
2022/09/01 09:08:54;;;;;;;;;;;20.90;58.40;;;;;;5128573;27;19919;-73
2022/09/01 09:11:29;;;;;;;;;;;20.90;58.30;;;;;;5131684;27;19923;-72
2022/09/01 09:14:00;;;;;;;;;;;21.00;58.00;;;;;;5124523;27;20400;-72
2022/09/01 09:16:29;;;;;;;;;;;21.00;58.20;;;;;;5125190;27;19927;-73
2022/09/01 09:19:00;;;;;;;;;;;21.10;58.00;;;;;;5117265;27;20474;-73
2022/09/01 09:21:28;;;;;;;;;;;21.20;57.60;;;;;;5122024;27;20215;-73
2022/09/01 09:23:58;;;;;;;;;;;21.10;57.20;;;;;;5125376;27;20006;-74
2022/09/01 09:26:26;;;;;;;;;;;21.30;56.50;;;;;;5129589;27;19926;-73
2022/09/01 09:28:53;;;;;;;;;;;21.30;55.80;;;;;;5129192;27;19976;-73
2022/09/01 09:31:27;;;;;;;;;;;21.40;55.50;;;;;;5131593;27;19927;-73
2022/09/01 09:33:54;;;;;;;;;;;21.40;55.40;;;;;;5125051;27;19919;-73
2022/09/01 09:36:23;;;;;;;;;;;21.40;55.00;;;;;;5127455;27;19946;-73
2022/09/01 09:39:03;;;;;;;;;;;21.50;55.10;;;;;;5132701;27;20389;-72
2022/09/01 09:41:31;;;;;;;;;;;21.60;54.80;;;;;;5128662;27;20012;-73
2022/09/01 09:43:59;;;;;;;;;;;21.70;54.70;;;;;;5128395;27;20034;-73
2022/09/01 09:46:33;;;;;;;;;;;21.80;54.20;;;;;;5127480;27;20355;-72
2022/09/01 09:49:08;;;;;;;;;;;21.90;53.70;;;;;;5125925;27;19920;-73
2022/09/01 09:51:35;;;;;;;;;;;22.00;53.40;;;;;;5125452;27;19966;-73
2022/09/01 09:54:12;;;;;;;;;;;22.30;52.90;;;;;;5127930;27;19979;-72
2022/09/01 09:56:43;;;;;;;;;;;22.60;52.30;;;;;;5123025;27;20010;-72
2022/09/01 09:59:22;;;;;;;;;;;22.70;51.50;;;;;;5130305;27;19923;-73
2022/09/01 10:01:50;;;;;;;;;;;22.80;51.50;;;;;;5119554;27;19919;-72
2022/09/01 10:04:31;;;;;;;;;;;22.90;50.80;;;;;;5123665;27;20380;-73
2022/09/01 10:06:58;;;;;;;;;;;23.00;50.60;;;;;;5127441;27;19920;-73
2022/09/01 10:09:33;;;;;;;;;;;23.10;50.70;;;;;;5132042;27;19919;-73
2022/09/01 10:12:02;;;;;;;;;;;23.20;50.40;;;;;;5133526;27;19919;-72
2022/09/01 10:14:31;;;;;;;;;;;23.40;50.40;;;;;;5126574;27;19927;-72
2022/09/01 10:17:00;;;;;;;;;;;23.60;49.90;;;;;;5127970;27;19920;-73
2022/09/01 10:19:29;;;;;;;;;;;23.70;49.40;;;;;;5116736;27;19927;-72
2022/09/01 10:21:56;;;;;;;;;;;23.80;49.70;;;;;;5128256;27;19927;-72
2022/09/01 10:24:25;;;;;;;;;;;23.90;49.20;;;;;;5124298;27;19919;-73
2022/09/01 10:26:54;;;;;;;;;;;24.00;48.70;;;;;;5123142;27;19976;-73
2022/09/01 10:29:24;;;;;;;;;;;24.00;48.30;;;;;;5130197;27;20313;-73
2022/09/01 10:31:53;;;;;;;;;;;24.10;47.50;;;;;;5125036;27;20427;-73
2022/09/01 10:34:21;;;;;;;;;;;24.10;47.20;;;;;;5128453;27;19920;-72
2022/09/01 10:36:48;;;;;;;;;;;24.10;47.10;;;;;;5125934;27;19946;-72
2022/09/01 10:39:16;;;;;;;;;;;24.00;47.10;;;;;;5126615;27;19970;-73
2022/09/01 10:41:49;;;;;;;;;;;24.00;46.10;;;;;;5126586;27;19927;-73
2022/09/01 10:44:21;;;;;;;;;;;23.90;45.70;;;;;;5132459;27;19927;-72
2022/09/01 10:46:50;;;;;;;;;;;23.80;45.70;;;;;;5126007;27;19926;-72
2022/09/01 10:49:21;;;;;;;;;;;23.70;45.20;;;;;;5121296;27;19919;-73
2022/09/01 10:51:48;;;;;;;;;;;23.80;44.90;;;;;;5124154;27;20014;-72
2022/09/01 10:54:29;;;;;;;;;;;23.80;45.70;;;;;;5129574;27;20035;-72
2022/09/01 10:56:59;;;;;;;;;;;24.00;46.50;;;;;;5124318;27;19962;-73
2022/09/01 10:59:27;;;;;;;;;;;24.10;47.10;;;;;;5127802;27;19927;-70
2022/09/01 11:02:15;;;;;;;;;;;24.10;47.00;;;;;;5122819;27;19920;-73
2022/09/01 11:05:00;;;;;;;;;;;24.10;46.20;;;;;;5132781;27;19927;-74
2022/09/01 11:07:34;;;;;;;;;;;24.10;46.80;;;;;;5122530;27;20016;-72
2022/09/01 11:10:14;;;;;;;;;;;24.00;46.90;;;;;;5119096;27;20022;-73
2022/09/01 11:12:47;;;;;;;;;;;23.80;46.80;;;;;;5125026;27;20371;-73
2022/09/01 11:15:32;;;;;;;;;;;23.80;46.10;;;;;;5122113;27;20006;-73
2022/09/01 11:17:59;;;;;;;;;;;23.70;45.50;;;;;;5131357;27;19919;-73
2022/09/01 11:20:27;;;;;;;;;;;23.70;46.00;;;;;;5128658;27;19931;-73
2022/09/01 11:23:01;;;;;;;;;;;23.60;44.60;;;;;;5124609;27;20000;-73
2022/09/01 11:25:33;;;;;;;;;;;23.60;44.60;;;;;;5129089;27;19939;-73
2022/09/01 11:28:15;;;;;;;;;;;23.50;44.10;;;;;;5123671;27;19992;-73
2022/09/01 11:30:50;;;;;;;;;;;23.40;43.90;;;;;;5118872;27;19963;-72
2022/09/01 11:33:35;;;;;;;;;;;23.40;44.00;;;;;;5125543;27;19972;-72
2022/09/01 11:36:03;;;;;;;;;;;23.40;44.50;;;;;;5116940;27;19926;-72
2022/09/01 11:38:38;;;;;;;;;;;23.60;44.50;;;;;;5122846;27;20017;-72
2022/09/01 11:41:04;;;;;;;;;;;23.80;44.80;;;;;;5123646;27;20590;-72
2022/09/01 11:43:31;;;;;;;;;;;24.00;45.70;;;;;;5127128;27;19927;-72
2022/09/01 11:46:03;;;;;;;;;;;24.20;45.50;;;;;;5121299;27;19938;-71
2022/09/01 11:48:29;;;;;;;;;;;24.40;44.50;;;;;;5124266;27;19923;-74
2022/09/01 11:50:58;;;;;;;;;;;24.60;44.50;;;;;;5132849;27;19919;-73
2022/09/01 11:53:25;;;;;;;;;;;24.80;44.60;;;;;;5134436;27;20357;-74
2022/09/01 11:56:12;;;;;;;;;;;24.90;44.20;;;;;;5132850;27;19933;-74
2022/09/01 11:58:40;;;;;;;;;;;25.00;44.30;;;;;;5121128;27;19926;-72
2022/09/01 12:01:16;;;;;;;;;;;24.90;44.40;;;;;;5127678;27;19926;-74
2022/09/01 12:03:42;;;;;;;;;;;24.90;43.40;;;;;;5130390;27;19959;-72
2022/09/01 12:06:11;;;;;;;;;;;24.80;42.20;;;;;;5119060;27;19926;-72
2022/09/01 12:08:39;;;;;;;;;;;24.70;42.90;;;;;;5124498;27;19926;-72
2022/09/01 12:11:09;;;;;;;;;;;24.60;43.40;;;;;;5133869;27;19950;-74
2022/09/01 12:13:36;;;;;;;;;;;24.60;43.30;;;;;;5134195;27;20372;-72
2022/09/01 12:16:04;;;;;;;;;;;24.60;42.50;;;;;;5127442;27;19923;-72
2022/09/01 12:18:33;;;;;;;;;;;24.50;42.80;;;;;;5128417;27;19934;-73
2022/09/01 12:21:01;;;;;;;;;;;24.50;43.20;;;;;;5128488;27;19923;-71
2022/09/01 12:23:29;;;;;;;;;;;24.40;42.90;;;;;;5127974;27;19984;-72
2022/09/01 12:25:57;;;;;;;;;;;24.40;43.20;;;;;;5128018;27;19926;-73
2022/09/01 12:28:29;;;;;;;;;;;24.30;43.40;;;;;;5130142;27;19923;-73
2022/09/01 12:30:57;;;;;;;;;;;24.30;43.40;;;;;;5126894;27;19926;-72
2022/09/01 12:33:25;;;;;;;;;;;24.20;42.00;;;;;;5131640;27;20326;-72
2022/09/01 12:35:52;;;;;;;;;;;24.10;41.80;;;;;;5130802;27;19919;-72
2022/09/01 12:38:22;;;;;;;;;;;24.10;42.00;;;;;;5130033;27;19958;-73
2022/09/01 12:40:50;;;;;;;;;;;24.00;41.50;;;;;;5123961;27;20304;-73
2022/09/01 12:43:28;;;;;;;;;;;24.00;41.40;;;;;;5129729;27;19919;-73
2022/09/01 12:45:58;;;;;;;;;;;24.00;41.40;;;;;;5132183;27;19928;-73
2022/09/01 12:48:28;;;;;;;;;;;24.00;41.70;;;;;;5129325;27;19923;-71
2022/09/01 12:50:55;;;;;;;;;;;24.00;42.10;;;;;;5132640;27;19931;-72
2022/09/01 12:53:27;;;;;;;;;;;24.00;41.10;;;;;;5133409;27;20017;-70
2022/09/01 12:55:58;;;;;;;;;;;24.00;40.70;;;;;;5134044;27;20102;-73
2022/09/01 12:58:26;;;;;;;;;;;24.00;40.80;;;;;;5131232;27;19934;-72
2022/09/01 13:00:59;;;;;;;;;;;24.10;41.10;;;;;;5122241;27;19919;-73
2022/09/01 13:03:28;;;;;;;;;;;24.00;41.20;;;;;;5126694;27;19948;-74
2022/09/01 13:05:56;;;;;;;;;;;24.10;40.90;;;;;;5131481;27;19927;-73
2022/09/01 13:08:25;;;;;;;;;;;24.20;40.90;;;;;;5130234;27;19919;-73
2022/09/01 13:10:53;;;;;;;;;;;24.20;41.00;;;;;;5127347;27;20288;-73
2022/09/01 13:13:22;;;;;;;;;;;24.30;41.00;;;;;;5129727;27;19955;-72
2022/09/01 13:15:51;;;;;;;;;;;24.50;41.20;;;;;;5123464;27;19923;-72
2022/09/01 13:18:21;;;;;;;;;;;24.50;41.20;;;;;;5126967;27;20292;-73
2022/09/01 13:20:47;;;;;;;;;;;24.70;41.40;;;;;;5123959;27;20357;-72
2022/09/01 13:23:15;;;;;;;;;;;24.80;41.60;;;;;;5122922;27;19998;-72
2022/09/01 13:25:43;;;;;;;;;;;24.90;39.90;;;;;;5125221;27;20018;-72
2022/09/01 13:28:10;;;;;;;;;;;25.00;39.20;;;;;;5126216;27;19927;-73
2022/09/01 13:30:37;;;;;;;;;;;25.10;39.40;;;;;;5125571;27;19919;-73
2022/09/01 13:33:04;;;;;;;;;;;25.10;39.00;;;;;;5125566;27;19919;-74
2022/09/01 13:35:32;;;;;;;;;;;25.10;38.40;;;;;;5131895;27;19919;-73
2022/09/01 13:37:58;;;;;;;;;;;25.10;38.00;;;;;;5134442;27;19919;-72
2022/09/01 13:40:25;;;;;;;;;;;25.10;37.30;;;;;;5132607;27;19923;-73
2022/09/01 13:42:53;;;;;;;;;;;25.10;37.60;;;;;;5131586;27;20368;-76
2022/09/01 13:45:23;;;;;;;;;;;25.10;36.90;;;;;;5130528;27;20024;-73
2022/09/01 13:47:50;;;;;;;;;;;25.10;37.20;;;;;;5114648;27;19924;-74
2022/09/01 13:50:18;;;;;;;;;;;25.10;37.30;;;;;;5123401;27;20280;-73
2022/09/01 13:52:47;;;;;;;;;;;25.00;37.70;;;;;;5129255;27;19919;-73
2022/09/01 13:55:15;;;;;;;;;;;24.90;37.50;;;;;;5129805;27;19923;-73
2022/09/01 13:57:42;;;;;;;;;;;24.80;38.40;;;;;;5127014;27;19919;-73
2022/09/01 14:00:11;;;;;;;;;;;24.80;39.20;;;;;;5125124;27;19927;-73
2022/09/01 14:02:38;;;;;;;;;;;24.80;38.80;;;;;;5124590;27;20304;-73
2022/09/01 14:05:05;;;;;;;;;;;24.80;39.10;;;;;;5124994;27;19931;-72
2022/09/01 14:07:32;;;;;;;;;;;24.80;39.10;;;;;;5127571;27;19919;-72
2022/09/01 14:10:00;;;;;;;;;;;24.80;40.00;;;;;;5135906;27;19919;-72
2022/09/01 14:12:29;;;;;;;;;;;24.70;39.30;;;;;;5129779;27;19920;-72
2022/09/01 14:14:55;;;;;;;;;;;24.70;40.30;;;;;;5128163;27;19919;-73
2022/09/01 14:17:22;;;;;;;;;;;24.70;39.60;;;;;;5118651;27;19942;-73
2022/09/01 14:19:49;;;;;;;;;;;24.60;39.80;;;;;;5128435;27;19927;-73
2022/09/01 14:22:16;;;;;;;;;;;24.60;39.50;;;;;;5130558;27;19919;-73
2022/09/01 14:24:42;;;;;;;;;;;24.60;39.70;;;;;;5123685;27;19941;-73
2022/09/01 14:27:11;;;;;;;;;;;24.70;39.90;;;;;;5126572;27;19969;-73
2022/09/01 14:29:38;;;;;;;;;;;24.60;39.70;;;;;;5126884;27;20292;-73
2022/09/01 14:32:06;;;;;;;;;;;24.60;38.90;;;;;;5126613;27;19946;-73
2022/09/01 14:34:33;;;;;;;;;;;24.60;39.20;;;;;;5125567;27;19927;-72
2022/09/01 14:37:00;;;;;;;;;;;24.60;39.20;;;;;;5130001;27;20270;-74